Time;durP1;ratioP1;P1;durP2;ratioP2;P2;SDS_P1;SDS_P2;PMS_P1;PMS_P2;Temp;Humidity;BMP_temperature;BMP_pressure;BME280_temperature;BME280_humidity;BME280_pressure;Samples;Min_cycle;Max_cycle;Signal;HPM_P1;HPM_P2
2022/10/05 00:04:52;;;;;;;6.53;2.73;;;;;;;;;;10559643;28;20113;-75
2022/10/05 00:09:57;;;;;;;7.07;3.00;;;;;;;;;;10553896;28;20446;-76
2022/10/05 00:15:02;;;;;;;5.35;2.67;;;;;;;;;;10537585;28;20105;-77
2022/10/05 00:20:14;;;;;;;8.63;2.97;;;;;;;;;;10563836;28;20583;-76
2022/10/05 00:25:22;;;;;;;5.13;2.58;;;;;;;;;;10567976;27;20040;-76
2022/10/05 00:30:26;;;;;;;5.70;2.97;;;;;;;;;;10563221;28;20044;-75
2022/10/05 00:35:30;;;;;;;;;;;;;;;;;;10564497;28;20066;-76
2022/10/05 00:40:45;;;;;;;6.57;2.60;;;;;;;;;;10560344;28;20384;-76
2022/10/05 00:45:49;;;;;;;3.80;1.48;;;;;;;;;;10569689;28;20500;-76
2022/10/05 00:51:00;;;;;;;5.32;2.50;;;;;;;;;;10568741;28;20511;-76
2022/10/05 00:56:09;;;;;;;5.25;2.30;;;;;;;;;;10542790;28;20035;-76
2022/10/05 01:01:13;;;;;;;3.33;1.70;;;;;;;;;;10540627;28;20135;-76
2022/10/05 01:06:16;;;;;;;;;;;;;;;;;;10540090;28;20040;-77
2022/10/05 01:11:26;;;;;;;4.53;2.30;;;;;;;;;;10560509;28;19920;-76
2022/10/05 01:16:36;;;;;;;3.85;2.40;;;;;;;;;;10571666;27;20131;-77
2022/10/05 01:21:46;;;;;;;3.08;2.00;;;;;;;;;;10572381;27;20146;-76
2022/10/05 01:27:07;;;;;;;2.75;1.55;;;;;;;;;;10551281;27;20094;-76
2022/10/05 01:32:19;;;;;;;5.38;2.08;;;;;;;;;;10569091;27;20040;-76
2022/10/05 01:37:26;;;;;;;1.25;0.93;;;;;;;;;;10568555;27;20031;-77
2022/10/05 01:42:34;;;;;;;3.25;1.80;;;;;;;;;;10569187;27;20040;-76
2022/10/05 01:47:45;;;;;;;2.28;1.23;;;;;;;;;;10574364;27;20051;-77
2022/10/05 01:52:53;;;;;;;2.35;1.48;;;;;;;;;;10570997;28;20035;-75
2022/10/05 01:58:03;;;;;;;3.80;2.00;;;;;;;;;;10571667;27;20488;-75
2022/10/05 02:03:12;;;;;;;1.73;1.30;;;;;;;;;;10579603;27;20032;-76
2022/10/05 02:08:19;;;;;;;3.92;1.70;;;;;;;;;;10585811;27;20040;-78
2022/10/05 02:13:25;;;;;;;3.38;1.90;;;;;;;;;;10543844;28;20032;-78
2022/10/05 02:18:34;;;;;;;3.30;1.60;;;;;;;;;;10560342;27;20390;-79
2022/10/05 02:23:40;;;;;;;5.15;1.88;;;;;;;;;;10570333;27;20046;-78
2022/10/05 02:28:45;;;;;;;2.88;1.65;;;;;;;;;;10564385;27;20101;-78
2022/10/05 02:34:18;;;;;;;3.83;1.90;;;;;;;;;;10571212;28;20044;-79
2022/10/05 02:39:29;;;;;;;2.33;1.33;;;;;;;;;;10566404;28;20081;-78
2022/10/05 02:44:37;;;;;;;1.95;1.52;;;;;;;;;;10570787;27;20039;-78
2022/10/05 02:49:46;;;;;;;2.55;1.13;;;;;;;;;;10566941;27;20039;-76
2022/10/05 02:54:52;;;;;;;4.60;1.83;;;;;;;;;;10567720;27;20044;-78
2022/10/05 02:59:59;;;;;;;3.72;1.80;;;;;;;;;;10570458;27;20085;-77
2022/10/05 03:05:08;;;;;;;3.28;1.67;;;;;;;;;;10563149;28;20076;-76
2022/10/05 03:10:13;;;;;;;5.47;1.63;;;;;;;;;;10553778;27;20485;-76
2022/10/05 03:15:22;;;;;;;4.93;1.88;;;;;;;;;;10540242;27;20028;-77
2022/10/05 03:20:33;;;;;;;2.20;1.50;;;;;;;;;;10561967;27;20044;-77
2022/10/05 03:26:00;;;;;;;1.73;1.10;;;;;;;;;;10565011;28;20034;-76
2022/10/05 03:31:11;;;;;;;4.07;1.85;;;;;;;;;;10569339;27;20042;-77
2022/10/05 03:36:21;;;;;;;2.30;1.42;;;;;;;;;;10569875;27;20191;-76
2022/10/05 03:41:30;;;;;;;6.45;2.28;;;;;;;;;;10551863;28;20131;-76
2022/10/05 03:46:39;;;;;;;4.78;1.83;;;;;;;;;;10570700;28;20074;-76
2022/10/05 03:51:50;;;;;;;4.13;1.90;;;;;;;;;;10566502;28;20039;-77
2022/10/05 03:56:55;;;;;;;4.38;1.95;;;;;;;;;;10561230;28;20107;-76
2022/10/05 04:02:00;;;;;;;4.45;1.90;;;;;;;;;;10549302;28;20136;-76
2022/10/05 04:07:09;;;;;;;2.53;1.60;;;;;;;;;;10571295;28;20074;-77
2022/10/05 04:12:16;;;;;;;3.35;1.70;;;;;;;;;;10570447;28;20098;-77
2022/10/05 04:17:27;;;;;;;2.72;1.70;;;;;;;;;;10571644;28;20105;-76
2022/10/05 04:22:36;;;;;;;3.03;1.52;;;;;;;;;;10570987;28;20131;-77
2022/10/05 04:27:41;;;;;;;3.00;1.80;;;;;;;;;;10561587;28;20085;-78
2022/10/05 04:32:45;;;;;;;4.20;2.00;;;;;;;;;;10566813;28;20484;-77
2022/10/05 04:37:54;;;;;;;2.25;1.23;;;;;;;;;;10567171;28;20144;-78
2022/10/05 04:43:00;;;;;;;3.97;1.85;;;;;;;;;;10563652;28;20039;-77
2022/10/05 04:48:23;;;;;;;4.22;1.90;;;;;;;;;;10572948;27;20039;-78
2022/10/05 04:53:32;;;;;;;3.13;1.45;;;;;;;;;;10576612;28;20459;-77
2022/10/05 04:58:48;;;;;;;2.15;1.58;;;;;;;;;;10577067;28;20485;-77
2022/10/05 05:03:59;;;;;;;3.22;1.67;;;;;;;;;;10563155;28;20412;-78
2022/10/05 05:09:15;;;;;;;2.97;1.50;;;;;;;;;;10586607;27;20043;-76
2022/10/05 05:14:31;;;;;;;3.88;1.67;;;;;;;;;;10555861;27;20063;-78
2022/10/05 05:19:40;;;;;;;5.88;1.75;;;;;;;;;;10578537;27;20051;-78
2022/10/05 05:24:54;;;;;;;4.20;1.75;;;;;;;;;;10580001;27;20070;-77
2022/10/05 05:30:02;;;;;;;2.67;1.45;;;;;;;;;;10582093;27;20259;-79
2022/10/05 05:35:25;;;;;;;3.05;1.60;;;;;;;;;;10582098;27;20031;-79
2022/10/05 05:40:32;;;;;;;3.47;1.77;;;;;;;;;;10563586;28;20063;-79
2022/10/05 05:45:40;;;;;;;2.53;1.50;;;;;;;;;;10577203;27;20035;-76
2022/10/05 05:50:49;;;;;;;5.28;1.75;;;;;;;;;;10572859;27;20477;-76
2022/10/05 05:55:59;;;;;;;4.57;1.58;;;;;;;;;;10551806;27;20066;-78
2022/10/05 06:01:05;;;;;;;2.50;1.50;;;;;;;;;;10564123;27;20098;-78
2022/10/05 06:06:10;;;;;;;2.72;1.30;;;;;;;;;;10578447;27;20557;-79
2022/10/05 06:11:17;;;;;;;3.38;1.60;;;;;;;;;;10569767;27;20601;-76
2022/10/05 06:16:23;;;;;;;3.03;1.77;;;;;;;;;;10559968;28;20042;-77
2022/10/05 06:21:28;;;;;;;4.80;1.60;;;;;;;;;;10539042;27;20032;-78
2022/10/05 06:26:40;;;;;;;2.35;1.40;;;;;;;;;;10570816;27;20043;-77
2022/10/05 06:31:51;;;;;;;2.03;0.85;;;;;;;;;;10561390;27;20058;-79
2022/10/05 06:37:01;;;;;;;4.15;1.50;;;;;;;;;;10564396;27;20122;-79
2022/10/05 06:42:13;;;;;;;4.38;1.92;;;;;;;;;;10564628;27;20122;-80
2022/10/05 06:47:22;;;;;;;2.42;1.20;;;;;;;;;;10555368;28;20028;-77
2022/10/05 06:52:26;;;;;;;5.43;2.03;;;;;;;;;;10560678;27;20260;-78
2022/10/05 06:57:37;;;;;;;2.60;1.45;;;;;;;;;;10552565;27;20031;-80
2022/10/05 07:02:44;;;;;;;3.00;1.60;;;;;;;;;;10552737;28;20127;-77
2022/10/05 07:07:49;;;;;;;2.88;1.58;;;;;;;;;;10553224;27;20117;-78
2022/10/05 07:12:59;;;;;;;4.72;1.83;;;;;;;;;;10559929;27;20036;-78
2022/10/05 07:18:06;;;;;;;3.88;1.70;;;;;;;;;;10562358;27;20150;-79
2022/10/05 07:23:20;;;;;;;2.78;1.40;;;;;;;;;;10564521;27;20430;-78
2022/10/05 07:28:28;;;;;;;2.20;1.60;;;;;;;;;;10553785;27;20123;-79
2022/10/05 07:33:36;;;;;;;3.20;1.40;;;;;;;;;;10560890;27;20036;-79
2022/10/05 07:38:43;;;;;;;2.60;1.48;;;;;;;;;;10544984;27;20035;-79
2022/10/05 07:43:52;;;;;;;6.68;2.33;;;;;;;;;;10558368;27;20070;-79
2022/10/05 07:49:08;;;;;;;3.00;1.88;;;;;;;;;;10559020;27;20552;-79
2022/10/05 07:54:19;;;;;;;3.67;2.55;;;;;;;;;;10554236;27;20047;-79
2022/10/05 07:59:27;;;;;;;3.80;2.10;;;;;;;;;;10553145;27;20032;-79
2022/10/05 08:04:33;;;;;;;3.95;1.90;;;;;;;;;;10537038;27;20406;-80
2022/10/05 08:09:45;;;;;;;5.90;2.90;;;;;;;;;;10540797;27;20094;-79
2022/10/05 08:14:52;;;;;;;4.70;2.05;;;;;;;;;;10549809;28;20046;-81
2022/10/05 08:20:00;;;;;;;4.90;2.13;;;;;;;;;;10548069;27;20475;-80
2022/10/05 08:25:05;;;;;;;3.92;1.60;;;;;;;;;;10560343;28;20156;-79
2022/10/05 08:30:11;;;;;;;3.72;2.00;;;;;;;;;;10549574;28;20062;-79
2022/10/05 08:35:18;;;;;;;2.75;1.80;;;;;;;;;;10555786;28;20135;-79
2022/10/05 08:40:33;;;;;;;2.25;1.75;;;;;;;;;;10562579;28;20158;-80
2022/10/05 08:45:57;;;;;;;2.38;1.70;;;;;;;;;;10560562;28;20123;-78
2022/10/05 08:51:24;;;;;;;6.07;3.20;;;;;;;;;;10561116;28;20461;-79
2022/10/05 08:56:31;;;;;;;2.17;1.70;;;;;;;;;;10547930;28;20114;-80
2022/10/05 09:01:39;;;;;;;1.50;1.40;;;;;;;;;;10564113;28;20598;-79
2022/10/05 09:06:53;;;;;;;5.22;1.95;;;;;;;;;;10562084;28;20035;-80
2022/10/05 09:12:16;;;;;;;1.70;1.60;;;;;;;;;;10561371;28;20457;-80
2022/10/05 09:17:28;;;;;;;1.98;1.80;;;;;;;;;;10553258;28;20031;-79
2022/10/05 09:22:45;;;;;;;2.33;1.60;;;;;;;;;;10561362;28;20067;-80
2022/10/05 09:27:58;;;;;;;3.55;1.60;;;;;;;;;;10560402;28;20063;-79
2022/10/05 09:33:24;;;;;;;2.00;1.70;;;;;;;;;;10546656;27;20484;-79
2022/10/05 09:38:32;;;;;;;1.80;1.60;;;;;;;;;;10545429;27;20048;-79
2022/10/05 09:44:00;;;;;;;3.63;1.67;;;;;;;;;;10551664;28;20546;-79
2022/10/05 09:49:20;;;;;;;1.90;1.60;;;;;;;;;;10545211;27;20487;-79
2022/10/05 09:54:34;;;;;;;3.25;1.70;;;;;;;;;;10564133;27;20047;-79
2022/10/05 10:00:04;;;;;;;2.67;1.90;;;;;;;;;;10554485;27;20445;-79
2022/10/05 10:05:23;;;;;;;2.80;2.20;;;;;;;;;;10553312;27;20457;-79
2022/10/05 10:10:47;;;;;;;2.17;1.60;;;;;;;;;;10560358;27;20035;-79
2022/10/05 10:16:00;;;;;;;1.60;1.50;;;;;;;;;;10563238;27;20079;-79
2022/10/05 10:21:16;;;;;;;2.15;1.80;;;;;;;;;;10556900;27;20059;-79
2022/10/05 10:26:33;;;;;;;5.35;1.90;;;;;;;;;;10563924;27;20108;-79
2022/10/05 10:31:43;;;;;;;2.47;2.10;;;;;;;;;;10545594;27;20139;-79
2022/10/05 10:37:01;;;;;;;3.90;2.00;;;;;;;;;;10562056;27;20492;-79
2022/10/05 10:42:12;;;;;;;2.75;1.92;;;;;;;;;;10562246;27;20074;-79
2022/10/05 10:47:36;;;;;;;2.33;1.67;;;;;;;;;;10570369;27;20044;-80
2022/10/05 10:52:48;;;;;;;2.08;1.88;;;;;;;;;;10567425;27;20039;-78
2022/10/05 10:57:57;;;;;;;1.90;1.80;;;;;;;;;;10571994;27;20040;-79
2022/10/05 11:03:22;;;;;;;2.17;1.50;;;;;;;;;;10559501;27;20119;-80
2022/10/05 11:08:46;;;;;;;2.80;1.80;;;;;;;;;;10562600;27;20043;-79
2022/10/05 11:14:04;;;;;;;4.88;1.98;;;;;;;;;;10567147;27;20042;-79
2022/10/05 11:19:24;;;;;;;4.38;1.90;;;;;;;;;;10558699;27;20044;-78
2022/10/05 11:24:53;;;;;;;3.90;1.70;;;;;;;;;;10549257;27;20044;-78
2022/10/05 11:30:11;;;;;;;1.65;1.50;;;;;;;;;;10559133;27;20043;-77
2022/10/05 11:35:30;;;;;;;3.83;1.48;;;;;;;;;;10556853;28;20043;-79
2022/10/05 11:40:52;;;;;;;3.78;1.70;;;;;;;;;;10568543;27;20206;-79
2022/10/05 11:46:00;;;;;;;1.63;1.52;;;;;;;;;;10562074;27;20032;-79
2022/10/05 11:51:23;;;;;;;4.07;1.60;;;;;;;;;;10554795;28;20412;-80
2022/10/05 11:56:35;;;;;;;1.50;1.40;;;;;;;;;;10560146;27;20107;-77
2022/10/05 12:01:41;;;;;;;1.60;1.50;;;;;;;;;;10554077;27;20460;-78
2022/10/05 12:06:53;;;;;;;2.67;1.45;;;;;;;;;;10549791;28;20495;-79
2022/10/05 12:12:03;;;;;;;1.40;1.30;;;;;;;;;;10550286;28;20048;-79
2022/10/05 12:17:11;;;;;;;2.35;1.40;;;;;;;;;;10554034;28;20126;-78
2022/10/05 12:22:17;;;;;;;1.40;1.30;;;;;;;;;;10541455;28;20059;-79
2022/10/05 12:27:24;;;;;;;2.90;1.58;;;;;;;;;;10548334;28;20031;-77
2022/10/05 12:32:32;;;;;;;2.33;1.70;;;;;;;;;;10547406;28;21527;-78
2022/10/05 12:37:41;;;;;;;2.15;1.50;;;;;;;;;;10553711;28;20027;-78
2022/10/05 12:42:50;;;;;;;1.58;1.48;;;;;;;;;;10541951;28;20105;-78
2022/10/05 12:48:01;;;;;;;1.80;1.50;;;;;;;;;;10557915;28;20032;-78
2022/10/05 12:53:24;;;;;;;2.15;1.30;;;;;;;;;;10553511;27;20036;-78
2022/10/05 12:58:33;;;;;;;1.40;1.30;;;;;;;;;;10523786;28;20043;-78
2022/10/05 13:03:39;;;;;;;1.25;1.10;;;;;;;;;;10529182;28;20063;-78
2022/10/05 13:08:53;;;;;;;4.88;1.58;;;;;;;;;;10542272;28;20094;-78
2022/10/05 13:14:06;;;;;;;0.80;0.80;;;;;;;;;;10542441;27;20142;-77
2022/10/05 13:19:13;;;;;;;3.85;1.45;;;;;;;;;;10552572;28;20454;-82
2022/10/05 13:24:20;;;;;;;3.83;1.50;;;;;;;;;;10564769;27;20081;-72
2022/10/05 13:29:27;;;;;;;1.90;1.23;;;;;;;;;;10558284;27;20042;-72
2022/10/05 13:34:33;;;;;;;1.75;1.23;;;;;;;;;;10558686;27;20048;-72
2022/10/05 13:39:53;;;;;;;3.10;1.20;;;;;;;;;;10560973;27;20039;-72
2022/10/05 13:44:59;;;;;;;3.10;1.10;;;;;;;;;;10548500;27;20048;-74
2022/10/05 13:50:05;;;;;;;1.10;1.00;;;;;;;;;;10551050;27;20035;-72
2022/10/05 13:55:14;;;;;;;1.60;1.20;;;;;;;;;;10555118;28;20039;-72
2022/10/05 14:00:20;;;;;;;1.60;1.10;;;;;;;;;;10536397;27;20504;-72
2022/10/05 14:05:32;;;;;;;1.65;1.17;;;;;;;;;;10559562;27;20599;-74
2022/10/05 14:10:39;;;;;;;3.92;1.30;;;;;;;;;;10556072;27;20036;-73
2022/10/05 14:15:55;;;;;;;2.97;1.20;;;;;;;;;;10563171;27;20036;-75
2022/10/05 14:21:03;;;;;;;2.55;1.33;;;;;;;;;;10535704;27;20044;-73
2022/10/05 14:26:16;;;;;;;1.10;0.95;;;;;;;;;;10549012;27;20472;-71
2022/10/05 14:31:28;;;;;;;3.67;1.20;;;;;;;;;;10554556;28;20047;-72
2022/10/05 14:36:33;;;;;;;3.03;1.08;;;;;;;;;;10543169;28;20056;-71
2022/10/05 14:41:42;;;;;;;1.15;0.95;;;;;;;;;;10546966;28;20139;-72
2022/10/05 14:46:53;;;;;;;2.42;1.42;;;;;;;;;;10560763;27;20056;-72
2022/10/05 14:52:22;;;;;;;1.35;0.95;;;;;;;;;;10554209;27;20046;-72
2022/10/05 14:57:24;;;;;;;;;;;;;;;;;;10553822;27;20046;-72
2022/10/05 15:02:55;;;;;;;1.60;1.10;;;;;;;;;;10541326;28;20607;-71
2022/10/05 15:08:14;;;;;;;4.68;1.10;;;;;;;;;;10537910;28;20484;-72
2022/10/05 15:13:17;;;;;;;;;;;;;;;;;;10562007;27;20280;-72
2022/10/05 15:18:25;;;;;;;2.08;0.93;;;;;;;;;;10551262;27;19919;-76
2022/10/05 15:23:40;;;;;;;1.48;0.80;;;;;;;;;;10538078;28;20067;-77
2022/10/05 15:28:50;;;;;;;1.50;1.15;;;;;;;;;;10551702;27;20261;-78
2022/10/05 15:33:57;;;;;;;1.10;0.90;;;;;;;;;;10541353;27;20070;-77
2022/10/05 15:39:16;;;;;;;2.92;1.30;;;;;;;;;;10561947;28;20115;-76
2022/10/05 15:44:25;;;;;;;2.80;1.25;;;;;;;;;;10548648;27;20128;-78
2022/10/05 15:49:33;;;;;;;4.43;1.10;;;;;;;;;;10563171;27;20036;-78
2022/10/05 15:55:04;;;;;;;1.85;1.20;;;;;;;;;;10552116;28;20093;-77
2022/10/05 16:00:10;;;;;;;2.00;1.50;;;;;;;;;;10557869;28;20039;-77
2022/10/05 16:08:49;;;;;;;2.45;1.50;;;;;;;;;;10546735;27;20039;-77
2022/10/05 16:10:49;;;;;;;1.87;1.00;;;;;;;;;;10548707;27;20366;-77
2022/10/05 16:15:56;;;;;;;3.08;1.40;;;;;;;;;;10540759;27;20485;-77
2022/10/05 16:21:09;;;;;;;2.35;1.60;;;;;;;;;;10564586;27;20480;-77
2022/10/05 16:26:19;;;;;;;3.58;1.48;;;;;;;;;;10552300;28;20044;-77
2022/10/05 16:31:25;;;;;;;3.50;1.42;;;;;;;;;;10553481;28;20036;-77
2022/10/05 16:36:43;;;;;;;1.92;1.48;;;;;;;;;;10554064;28;20598;-78
2022/10/05 16:41:50;;;;;;;2.50;1.17;;;;;;;;;;10561555;28;20388;-77
2022/10/05 16:46:57;;;;;;;2.90;1.38;;;;;;;;;;10552562;28;20132;-77
2022/10/05 16:52:01;;;;;;;5.85;2.60;;;;;;;;;;10549223;28;20036;-76
2022/10/05 16:57:10;;;;;;;7.13;3.00;;;;;;;;;;10563557;27;20035;-78
2022/10/05 17:02:17;;;;;;;5.95;2.15;;;;;;;;;;10557272;27;20044;-78
2022/10/05 17:07:36;;;;;;;3.38;1.52;;;;;;;;;;10565429;27;20330;-77
2022/10/05 17:12:46;;;;;;;7.75;2.65;;;;;;;;;;10570479;27;20055;-78
2022/10/05 17:18:02;;;;;;;7.45;2.20;;;;;;;;;;10564550;28;20046;-77
2022/10/05 17:23:17;;;;;;;4.40;2.28;;;;;;;;;;10562439;27;20127;-80
2022/10/05 17:28:36;;;;;;;5.30;2.28;;;;;;;;;;10571051;27;20042;-78
2022/10/05 17:33:54;;;;;;;6.38;3.00;;;;;;;;;;10563500;27;20051;-78
2022/10/05 17:39:11;;;;;;;12.93;5.10;;;;;;;;;;10564410;28;20044;-79
2022/10/05 17:44:23;;;;;;;8.50;4.10;;;;;;;;;;10558556;27;20040;-77
2022/10/05 17:49:41;;;;;;;13.02;4.20;;;;;;;;;;10569820;27;20123;-77
2022/10/05 17:55:26;;;;;;;6.82;3.05;;;;;;;;;;10542987;27;20113;-77
2022/10/05 18:00:32;;;;;;;6.47;2.88;;;;;;;;;;10521016;27;20051;-77
2022/10/05 18:05:36;;;;;;;7.45;2.70;;;;;;;;;;10569713;27;20398;-79
2022/10/05 18:10:39;;;;;;;;;;;;;;;;;;10567624;27;20044;-78
2022/10/05 18:15:47;;;;;;;4.63;2.50;;;;;;;;;;10559709;27;19931;-77
2022/10/05 18:21:07;;;;;;;6.60;2.80;;;;;;;;;;10564297;27;20043;-77
2022/10/05 18:26:20;;;;;;;5.53;2.20;;;;;;;;;;10565694;27;20047;-78
2022/10/05 18:31:34;;;;;;;14.50;5.73;;;;;;;;;;10560724;27;20901;-78
2022/10/05 18:36:46;;;;;;;7.40;2.25;;;;;;;;;;10563202;27;20154;-77
2022/10/05 18:41:57;;;;;;;3.92;2.15;;;;;;;;;;10567045;28;20444;-78
2022/10/05 18:47:06;;;;;;;6.97;2.03;;;;;;;;;;10562634;28;20105;-76
2022/10/05 18:52:13;;;;;;;6.05;1.92;;;;;;;;;;10565982;27;20276;-77
2022/10/05 18:57:33;;;;;;;6.05;2.15;;;;;;;;;;10566477;27;20048;-78
2022/10/05 19:02:39;;;;;;;5.78;2.03;;;;;;;;;;10557120;28;20542;-78
2022/10/05 19:07:57;;;;;;;3.30;1.55;;;;;;;;;;10555552;28;20039;-77
2022/10/05 19:13:05;;;;;;;4.03;2.10;;;;;;;;;;10567487;27;20540;-76
2022/10/05 19:18:36;;;;;;;5.25;2.80;;;;;;;;;;10559542;27;20511;-77
2022/10/05 19:23:52;;;;;;;9.70;3.55;;;;;;;;;;10560707;28;20039;-77
2022/10/05 19:29:01;;;;;;;6.25;2.67;;;;;;;;;;10575921;27;20031;-77
2022/10/05 19:34:17;;;;;;;6.13;3.20;;;;;;;;;;10559861;27;20136;-77
2022/10/05 19:39:28;;;;;;;8.85;3.60;;;;;;;;;;10554381;28;20535;-77
2022/10/05 19:44:38;;;;;;;9.98;3.83;;;;;;;;;;10552662;27;20062;-77
2022/10/05 19:49:43;;;;;;;9.85;4.20;;;;;;;;;;10553493;27;20032;-77
2022/10/05 19:54:50;;;;;;;7.70;3.60;;;;;;;;;;10555847;28;20147;-76
2022/10/05 19:59:56;;;;;;;5.57;2.92;;;;;;;;;;10561265;28;20032;-77
2022/10/05 20:05:06;;;;;;;6.40;3.35;;;;;;;;;;10560176;28;20085;-77
2022/10/05 20:10:31;;;;;;;5.75;2.92;;;;;;;;;;10568912;27;20054;-80
2022/10/05 20:20:57;;;;;;;9.48;2.72;;;;;;;;;;10561257;27;20400;-77
2022/10/05 20:31:21;;;;;;;6.50;2.13;;;;;;;;;;10562841;28;20061;-78
2022/10/05 20:36:24;;;;;;;3.72;1.48;;;;;;;;;;10574803;28;20046;-76
2022/10/05 20:41:27;;;;;;;4.68;2.33;;;;;;;;;;10573625;28;20054;-75
2022/10/05 20:46:33;;;;;;;4.97;2.08;;;;;;;;;;10574544;28;20488;-77
2022/10/05 20:51:36;;;;;;;2.00;1.17;;;;;;;;;;10555536;28;20108;-77
2022/10/05 20:56:41;;;;;;;3.88;2.10;;;;;;;;;;10560279;28;20039;-76
2022/10/05 21:01:46;;;;;;;3.55;2.03;;;;;;;;;;10559388;28;20035;-75
2022/10/05 21:06:49;;;;;;;7.03;2.90;;;;;;;;;;10560334;28;20036;-76
2022/10/05 21:11:54;;;;;;;4.40;2.33;;;;;;;;;;10564283;28;20081;-75
2022/10/05 21:16:58;;;;;;;4.20;2.00;;;;;;;;;;10565382;28;20039;-74
2022/10/05 21:22:01;;;;;;;6.63;2.13;;;;;;;;;;10567929;28;20024;-75
2022/10/05 21:27:04;;;;;;;3.63;1.90;;;;;;;;;;10547401;27;20089;-77
2022/10/05 21:32:10;;;;;;;1.77;0.98;;;;;;;;;;10579222;27;20085;-75
2022/10/05 21:37:14;;;;;;;5.22;2.30;;;;;;;;;;10556627;27;20071;-77
2022/10/05 21:42:16;;;;;;;2.45;1.50;;;;;;;;;;10581811;27;20046;-75
2022/10/05 21:47:21;;;;;;;3.53;1.67;;;;;;;;;;10565316;27;20296;-75
2022/10/05 21:52:23;;;;;;;2.03;1.23;;;;;;;;;;10576695;27;20188;-76
2022/10/05 21:57:28;;;;;;;4.35;1.90;;;;;;;;;;10576363;27;20040;-75
2022/10/05 22:02:32;;;;;;;3.17;1.70;;;;;;;;;;10578016;27;20042;-75
2022/10/05 22:07:35;;;;;;;3.65;2.00;;;;;;;;;;10579690;27;20046;-76
2022/10/05 22:12:37;;;;;;;3.90;1.60;;;;;;;;;;10575492;27;20046;-75
2022/10/05 22:17:42;;;;;;;1.60;1.50;;;;;;;;;;10579316;27;20039;-76
2022/10/05 22:22:45;;;;;;;3.28;1.50;;;;;;;;;;10570956;27;20115;-75
2022/10/05 22:27:49;;;;;;;4.25;1.67;;;;;;;;;;10569939;28;20428;-76
2022/10/05 22:32:53;;;;;;;2.75;1.52;;;;;;;;;;10566886;27;20047;-75
2022/10/05 22:37:56;;;;;;;3.28;1.25;;;;;;;;;;10562551;27;20337;-76
2022/10/05 22:42:59;;;;;;;2.40;1.50;;;;;;;;;;10560431;27;20476;-75
2022/10/05 22:48:03;;;;;;;2.85;1.45;;;;;;;;;;10561391;27;20480;-76
2022/10/05 22:53:06;;;;;;;2.25;1.52;;;;;;;;;;10562748;28;20047;-76
2022/10/05 22:58:09;;;;;;;2.25;1.50;;;;;;;;;;10551968;28;20050;-76
2022/10/05 23:03:14;;;;;;;2.70;1.48;;;;;;;;;;10567614;27;20481;-76
2022/10/05 23:08:17;;;;;;;3.17;1.70;;;;;;;;;;10565405;27;20051;-76
2022/10/05 23:13:21;;;;;;;2.95;1.75;;;;;;;;;;10568121;28;20032;-75
2022/10/05 23:18:25;;;;;;;4.68;1.48;;;;;;;;;;10559495;27;20153;-77
2022/10/05 23:23:28;;;;;;;2.72;1.50;;;;;;;;;;10568237;27;20552;-75
2022/10/05 23:28:31;;;;;;;2.40;1.20;;;;;;;;;;10571002;27;20627;-76
2022/10/05 23:33:35;;;;;;;;;;;;;;;;;;10569030;28;20465;-76
2022/10/05 23:38:39;;;;;;;3.90;1.40;;;;;;;;;;10568269;27;20024;-76
2022/10/05 23:43:43;;;;;;;4.10;1.70;;;;;;;;;;10559967;28;20058;-76
2022/10/05 23:48:45;;;;;;;2.67;1.67;;;;;;;;;;10563502;27;20040;-76
2022/10/05 23:53:50;;;;;;;2.78;1.75;;;;;;;;;;10560334;28;20449;-76
2022/10/05 23:58:53;;;;;;;3.80;1.80;;;;;;;;;;10564419;27;20468;-75
